sensor_id;sensor_type;location;lat;lon;timestamp;pressure;altitude;pressure_sealevel;temperature;humidity
53932;BME280;39844;52.496;13.482;2022-11-06T00:00:15;101706.91;;;5.80;100.00
53932;BME280;39844;52.496;13.482;2022-11-06T00:02:41;101705.16;;;5.80;100.00
53932;BME280;39844;52.496;13.482;2022-11-06T00:05:07;101710.38;;;5.80;100.00
53932;BME280;39844;52.496;13.482;2022-11-06T00:07:51;101719.97;;;5.81;100.00
53932;BME280;39844;52.496;13.482;2022-11-06T00:10:16;101707.75;;;5.79;100.00
53932;BME280;39844;52.496;13.482;2022-11-06T00:12:42;101716.38;;;5.78;100.00
53932;BME280;39844;52.496;13.482;2022-11-06T00:15:08;101706.75;;;5.75;100.00
53932;BME280;39844;52.496;13.482;2022-11-06T00:17:33;101709.25;;;5.72;100.00
53932;BME280;39844;52.496;13.482;2022-11-06T00:19:58;101706.56;;;5.69;100.00
53932;BME280;39844;52.496;13.482;2022-11-06T00:22:24;101710.81;;;5.67;100.00
53932;BME280;39844;52.496;13.482;2022-11-06T00:24:49;101698.66;;;5.66;100.00
53932;BME280;39844;52.496;13.482;2022-11-06T00:27:15;101698.56;;;5.63;100.00
53932;BME280;39844;52.496;13.482;2022-11-06T00:29:40;101696.78;;;5.62;100.00
53932;BME280;39844;52.496;13.482;2022-11-06T00:32:06;101698.53;;;5.61;100.00
53932;BME280;39844;52.496;13.482;2022-11-06T00:34:32;101695.91;;;5.61;100.00
53932;BME280;39844;52.496;13.482;2022-11-06T00:36:57;101701.94;;;5.60;100.00
53932;BME280;39844;52.496;13.482;2022-11-06T00:39:22;101705.44;;;5.61;100.00
53932;BME280;39844;52.496;13.482;2022-11-06T00:41:48;101703.72;;;5.61;100.00
53932;BME280;39844;52.496;13.482;2022-11-06T00:44:13;101700.34;;;5.64;100.00
53932;BME280;39844;52.496;13.482;2022-11-06T00:46:38;101702.94;;;5.64;100.00
53932;BME280;39844;52.496;13.482;2022-11-06T00:49:04;101701.16;;;5.63;100.00
53932;BME280;39844;52.496;13.482;2022-11-06T00:51:31;101698.56;;;5.63;100.00
53932;BME280;39844;52.496;13.482;2022-11-06T00:53:59;101693.25;;;5.60;100.00
53932;BME280;39844;52.496;13.482;2022-11-06T00:56:25;101697.56;;;5.59;100.00
53932;BME280;39844;52.496;13.482;2022-11-06T00:58:51;101701.91;;;5.59;100.00
53932;BME280;39844;52.496;13.482;2022-11-06T01:01:22;101700.25;;;5.61;100.00
53932;BME280;39844;52.496;13.482;2022-11-06T01:03:54;101695.03;;;5.61;100.00
53932;BME280;39844;52.496;13.482;2022-11-06T01:06:26;101702.88;;;5.62;100.00
53932;BME280;39844;52.496;13.482;2022-11-06T01:08:53;101701.97;;;5.62;100.00
53932;BME280;39844;52.496;13.482;2022-11-06T01:11:24;101689.81;;;5.61;100.00
53932;BME280;39844;52.496;13.482;2022-11-06T01:13:51;101696.72;;;5.59;100.00
53932;BME280;39844;52.496;13.482;2022-11-06T01:16:18;101704.56;;;5.60;100.00
53932;BME280;39844;52.496;13.482;2022-11-06T01:18:44;101700.25;;;5.61;100.00
53932;BME280;39844;52.496;13.482;2022-11-06T01:21:31;101697.66;;;5.62;100.00
53932;BME280;39844;52.496;13.482;2022-11-06T01:23:59;101695.03;;;5.61;100.00
53932;BME280;39844;52.496;13.482;2022-11-06T01:26:26;101686.28;;;5.59;100.00
53932;BME280;39844;52.496;13.482;2022-11-06T01:28:52;101689.72;;;5.58;100.00
53932;BME280;39844;52.496;13.482;2022-11-06T01:31:21;101681.00;;;5.57;100.00
53932;BME280;39844;52.496;13.482;2022-11-06T01:33:47;101684.50;;;5.58;100.00
53932;BME280;39844;52.496;13.482;2022-11-06T01:36:15;101672.31;;;5.57;100.00
53932;BME280;39844;52.496;13.482;2022-11-06T01:38:43;101668.88;;;5.58;100.00
53932;BME280;39844;52.496;13.482;2022-11-06T01:41:14;101668.88;;;5.58;100.00
53932;BME280;39844;52.496;13.482;2022-11-06T01:43:59;101668.84;;;5.56;100.00
53932;BME280;39844;52.496;13.482;2022-11-06T01:46:29;101669.72;;;5.57;100.00
53932;BME280;39844;52.496;13.482;2022-11-06T01:49:13;101658.38;;;5.55;100.00
53932;BME280;39844;52.496;13.482;2022-11-06T01:51:47;101666.25;;;5.56;100.00
53932;BME280;39844;52.496;13.482;2022-11-06T01:54:14;101663.69;;;5.58;100.00
53932;BME280;39844;52.496;13.482;2022-11-06T01:56:40;101654.16;;;5.58;100.00
53932;BME280;39844;52.496;13.482;2022-11-06T01:59:09;101649.75;;;5.57;100.00
53932;BME280;39844;52.496;13.482;2022-11-06T02:01:37;101646.28;;;5.57;100.00
53932;BME280;39844;52.496;13.482;2022-11-06T02:04:08;101649.72;;;5.56;100.00
53932;BME280;39844;52.496;13.482;2022-11-06T02:06:35;101651.47;;;5.57;100.00
53932;BME280;39844;52.496;13.482;2022-11-06T02:09:02;101644.53;;;5.56;100.00
53932;BME280;39844;52.496;13.482;2022-11-06T02:11:28;101649.72;;;5.56;100.00
53932;BME280;39844;52.496;13.482;2022-11-06T02:14:27;101641.91;;;5.56;100.00
53932;BME280;39844;52.496;13.482;2022-11-06T02:17:06;101633.22;;;5.55;100.00
53932;BME280;39844;52.496;13.482;2022-11-06T02:22:39;101628.94;;;5.57;100.00
53932;BME280;39844;52.496;13.482;2022-11-06T02:28:00;101617.69;;;5.58;100.00
53932;BME280;39844;52.496;13.482;2022-11-06T02:30:30;101628.22;;;5.61;100.00
53932;BME280;39844;52.496;13.482;2022-11-06T02:33:01;101627.34;;;5.62;100.00
53932;BME280;39844;52.496;13.482;2022-11-06T02:35:44;101623.91;;;5.63;100.00
53932;BME280;39844;52.496;13.482;2022-11-06T02:38:22;101626.53;;;5.63;100.00
53932;BME280;39844;52.496;13.482;2022-11-06T02:40:52;101621.31;;;5.63;100.00
53932;BME280;39844;52.496;13.482;2022-11-06T02:43:21;101628.22;;;5.61;100.00
53932;BME280;39844;52.496;13.482;2022-11-06T02:45:55;101626.44;;;5.60;100.00
53932;BME280;39844;52.496;13.482;2022-11-06T02:48:26;101625.50;;;5.58;100.00
53932;BME280;39844;52.496;13.482;2022-11-06T02:50:54;101630.66;;;5.57;100.00
53932;BME280;39844;52.496;13.482;2022-11-06T02:53:23;101622.84;;;5.57;100.00
53932;BME280;39844;52.496;13.482;2022-11-06T02:55:54;101626.22;;;5.54;100.00
53932;BME280;39844;52.496;13.482;2022-11-06T02:58:27;101624.59;;;5.56;100.00
53932;BME280;39844;52.496;13.482;2022-11-06T03:01:02;101622.91;;;5.58;100.00
53932;BME280;39844;52.496;13.482;2022-11-06T03:03:31;101618.59;;;5.59;100.00
53932;BME280;39844;52.496;13.482;2022-11-06T03:06:06;101628.16;;;5.60;100.00
53932;BME280;39844;52.496;13.482;2022-11-06T03:08:37;101619.50;;;5.61;100.00
53932;BME280;39844;52.496;13.482;2022-11-06T03:11:24;101618.59;;;5.59;100.00
53932;BME280;39844;52.496;13.482;2022-11-06T03:13:59;101612.53;;;5.60;100.00
53932;BME280;39844;52.496;13.482;2022-11-06T03:16:50;101617.72;;;5.60;100.00
53932;BME280;39844;52.496;13.482;2022-11-06T03:19:28;101618.59;;;5.59;100.00
53932;BME280;39844;52.496;13.482;2022-11-06T03:22:06;101625.53;;;5.60;100.00
53932;BME280;39844;52.496;13.482;2022-11-06T03:24:56;101618.59;;;5.59;100.00
53932;BME280;39844;52.496;13.482;2022-11-06T03:27:35;101613.38;;;5.59;100.00
53932;BME280;39844;52.496;13.482;2022-11-06T03:30:06;101608.97;;;5.56;100.00
53932;BME280;39844;52.496;13.482;2022-11-06T03:35:16;101624.41;;;5.52;100.00
53932;BME280;39844;52.496;13.482;2022-11-06T03:37:53;101621.75;;;5.49;100.00
53932;BME280;39844;52.496;13.482;2022-11-06T03:40:22;101620.78;;;5.47;100.00
53932;BME280;39844;52.496;13.482;2022-11-06T03:42:52;101614.66;;;5.45;100.00
53932;BME280;39844;52.496;13.482;2022-11-06T03:45:21;101620.66;;;5.42;100.00
53932;BME280;39844;52.496;13.482;2022-11-06T03:48:03;101611.88;;;5.39;100.00
53932;BME280;39844;52.496;13.482;2022-11-06T03:51:00;101616.13;;;5.37;100.00
53932;BME280;39844;52.496;13.482;2022-11-06T03:53:34;101621.31;;;5.35;100.00
53932;BME280;39844;52.496;13.482;2022-11-06T03:56:11;101608.19;;;5.32;100.00
53932;BME280;39844;52.496;13.482;2022-11-06T03:58:43;101601.22;;;5.31;100.00
53932;BME280;39844;52.496;13.482;2022-11-06T04:01:11;101603.78;;;5.30;100.00
53932;BME280;39844;52.496;13.482;2022-11-06T04:06:16;101599.44;;;5.30;100.00
53932;BME280;39844;52.496;13.482;2022-11-06T04:08:43;101607.22;;;5.29;100.00
53932;BME280;39844;52.496;13.482;2022-11-06T04:11:30;101605.47;;;5.29;100.00
53932;BME280;39844;52.496;13.482;2022-11-06T04:14:18;101603.78;;;5.30;100.00
53932;BME280;39844;52.496;13.482;2022-11-06T04:16:48;101593.34;;;5.30;100.00
53932;BME280;39844;52.496;13.482;2022-11-06T04:19:20;101594.22;;;5.29;100.00
53932;BME280;39844;52.496;13.482;2022-11-06T04:22:12;101601.13;;;5.28;100.00
53932;BME280;39844;52.496;13.482;2022-11-06T04:24:46;101593.25;;;5.27;100.00
53932;BME280;39844;52.496;13.482;2022-11-06T04:30:18;101589.69;;;5.23;100.00
53932;BME280;39844;52.496;13.482;2022-11-06T04:32:56;101587.00;;;5.20;100.00
53932;BME280;39844;52.496;13.482;2022-11-06T04:35:31;101582.56;;;5.18;100.00
53932;BME280;39844;52.496;13.482;2022-11-06T04:38:33;101597.28;;;5.17;100.00
53932;BME280;39844;52.496;13.482;2022-11-06T04:41:25;101602.56;;;5.19;100.00
53932;BME280;39844;52.496;13.482;2022-11-06T04:44:01;101593.88;;;5.18;100.00
53932;BME280;39844;52.496;13.482;2022-11-06T04:46:42;101593.81;;;5.17;100.00
53932;BME280;39844;52.496;13.482;2022-11-06T04:49:12;101592.78;;;5.11;100.00
53932;BME280;39844;52.496;13.482;2022-11-06T04:51:38;101589.25;;;5.09;100.00
53932;BME280;39844;52.496;13.482;2022-11-06T04:54:07;101589.22;;;5.08;100.00
53932;BME280;39844;52.496;13.482;2022-11-06T04:56:35;101585.72;;;5.07;100.00
53932;BME280;39844;52.496;13.482;2022-11-06T04:59:03;101587.44;;;5.07;100.00
53932;BME280;39844;52.496;13.482;2022-11-06T05:01:29;101583.03;;;5.06;100.00
53932;BME280;39844;52.496;13.482;2022-11-06T05:03:54;101588.22;;;5.04;100.00
53932;BME280;39844;52.496;13.482;2022-11-06T05:06:20;101577.81;;;5.04;100.00
53932;BME280;39844;52.496;13.482;2022-11-06T05:08:45;101571.72;;;5.04;100.00
53932;BME280;39844;52.496;13.482;2022-11-06T05:11:10;101569.00;;;5.01;100.00
53932;BME280;39844;52.496;13.482;2022-11-06T05:13:36;101570.75;;;5.00;100.00
53932;BME280;39844;52.496;13.482;2022-11-06T05:16:03;101569.78;;;4.98;100.00
53932;BME280;39844;52.496;13.482;2022-11-06T05:18:29;101568.03;;;4.97;100.00
53932;BME280;39844;52.496;13.482;2022-11-06T05:20:58;101573.19;;;4.96;100.00
53932;BME280;39844;52.496;13.482;2022-11-06T05:23:42;101567.06;;;4.94;100.00
53932;BME280;39844;52.496;13.482;2022-11-06T05:26:07;101577.47;;;4.94;100.00
53932;BME280;39844;52.496;13.482;2022-11-06T05:28:33;101571.31;;;4.92;100.00
53932;BME280;39844;52.496;13.482;2022-11-06T05:30:58;101570.41;;;4.90;100.00
53932;BME280;39844;52.496;13.482;2022-11-06T05:33:23;101579.00;;;4.87;100.00
53932;BME280;39844;52.496;13.482;2022-11-06T05:35:49;101575.47;;;4.85;100.00
53932;BME280;39844;52.496;13.482;2022-11-06T05:38:15;101568.44;;;4.83;100.00
53932;BME280;39844;52.496;13.482;2022-11-06T05:40:40;101572.75;;;4.82;100.00
53932;BME280;39844;52.496;13.482;2022-11-06T05:43:05;101575.25;;;4.79;100.00
53932;BME280;39844;52.496;13.482;2022-11-06T05:45:31;101563.94;;;4.77;100.00
53932;BME280;39844;52.496;13.482;2022-11-06T05:47:56;101576.81;;;4.74;100.00
53932;BME280;39844;52.496;13.482;2022-11-06T05:50:21;101575.03;;;4.73;100.00
53932;BME280;39844;52.496;13.482;2022-11-06T05:52:47;101572.44;;;4.73;100.00
53932;BME280;39844;52.496;13.482;2022-11-06T05:55:12;101576.72;;;4.71;100.00
53932;BME280;39844;52.496;13.482;2022-11-06T05:57:37;101567.16;;;4.70;100.00
53932;BME280;39844;52.496;13.482;2022-11-06T06:00:04;101571.47;;;4.70;100.00
53932;BME280;39844;52.496;13.482;2022-11-06T06:02:30;101572.25;;;4.67;100.00
53932;BME280;39844;52.496;13.482;2022-11-06T06:04:55;101577.47;;;4.67;100.00
53932;BME280;39844;52.496;13.482;2022-11-06T06:07:21;101581.75;;;4.67;100.00
53932;BME280;39844;52.496;13.482;2022-11-06T06:09:46;101581.75;;;4.67;100.00
53932;BME280;39844;52.496;13.482;2022-11-06T06:12:12;101579.16;;;4.67;100.00
53932;BME280;39844;52.496;13.482;2022-11-06T06:14:38;101582.53;;;4.64;100.00
53932;BME280;39844;52.496;13.482;2022-11-06T06:17:03;101583.31;;;4.62;100.00
53932;BME280;39844;52.496;13.482;2022-11-06T06:19:28;101575.41;;;4.59;100.00
53932;BME280;39844;52.496;13.482;2022-11-06T06:21:53;101578.91;;;4.59;100.00
53932;BME280;39844;52.496;13.482;2022-11-06T06:24:19;101587.53;;;4.58;100.00
53932;BME280;39844;52.496;13.482;2022-11-06T06:26:44;101589.31;;;4.59;100.00
53932;BME280;39844;52.496;13.482;2022-11-06T06:29:09;101592.84;;;4.61;100.00
53932;BME280;39844;52.496;13.482;2022-11-06T06:31:35;101588.53;;;4.62;100.00
53932;BME280;39844;52.496;13.482;2022-11-06T06:34:00;101593.84;;;4.65;100.00
53932;BME280;39844;52.496;13.482;2022-11-06T06:36:25;101589.53;;;4.65;100.00
53932;BME280;39844;52.496;13.482;2022-11-06T06:38:51;101589.59;;;4.68;100.00
53932;BME280;39844;52.496;13.482;2022-11-06T06:41:16;101587.97;;;4.70;100.00
53932;BME280;39844;52.496;13.482;2022-11-06T06:43:41;101597.59;;;4.73;100.00
53932;BME280;39844;52.496;13.482;2022-11-06T06:46:07;101594.25;;;4.77;100.00
53932;BME280;39844;52.496;13.482;2022-11-06T06:48:32;101597.75;;;4.79;100.00
53932;BME280;39844;52.496;13.482;2022-11-06T06:50:59;101595.25;;;4.80;100.00
53932;BME280;39844;52.496;13.482;2022-11-06T06:53:25;101600.50;;;4.83;100.00
53932;BME280;39844;52.496;13.482;2022-11-06T06:55:51;101598.88;;;4.85;100.00
53932;BME280;39844;52.496;13.482;2022-11-06T06:58:16;101605.81;;;4.86;100.00
53932;BME280;39844;52.496;13.482;2022-11-06T07:00:42;101604.16;;;4.88;100.00
53932;BME280;39844;52.496;13.482;2022-11-06T07:03:08;101599.91;;;4.90;100.00
53932;BME280;39844;52.496;13.482;2022-11-06T07:05:33;101611.25;;;4.92;100.00
53932;BME280;39844;52.496;13.482;2022-11-06T07:07:58;101606.16;;;4.95;100.00
53932;BME280;39844;52.496;13.482;2022-11-06T07:10:24;101604.41;;;4.96;100.00
53932;BME280;39844;52.496;13.482;2022-11-06T07:12:49;101608.81;;;4.98;100.00
53932;BME280;39844;52.496;13.482;2022-11-06T07:15:14;101607.22;;;5.02;100.00
53932;BME280;39844;52.496;13.482;2022-11-06T07:17:40;101605.59;;;5.05;100.00
53932;BME280;39844;52.496;13.482;2022-11-06T07:20:06;101600.47;;;5.08;100.00
53932;BME280;39844;52.496;13.482;2022-11-06T07:22:31;101599.88;;;5.16;100.00
53932;BME280;39844;52.496;13.482;2022-11-06T07:24:57;101605.25;;;5.22;100.00
53932;BME280;39844;52.496;13.482;2022-11-06T07:27:22;101605.41;;;5.26;100.00
53932;BME280;39844;52.496;13.482;2022-11-06T07:29:47;101608.16;;;5.31;100.00
53932;BME280;39844;52.496;13.482;2022-11-06T07:32:13;101599.59;;;5.35;100.00
53932;BME280;39844;52.496;13.482;2022-11-06T07:34:38;101598.88;;;5.39;100.00
53932;BME280;39844;52.496;13.482;2022-11-06T07:37:04;101591.19;;;5.43;100.00
53932;BME280;39844;52.496;13.482;2022-11-06T07:39:30;101590.44;;;5.47;100.00
53932;BME280;39844;52.496;13.482;2022-11-06T07:41:55;101593.28;;;5.55;100.00
53932;BME280;39844;52.496;13.482;2022-11-06T07:44:20;101597.78;;;5.60;100.00
53932;BME280;39844;52.496;13.482;2022-11-06T07:46:46;101589.28;;;5.66;100.00
53932;BME280;39844;52.496;13.482;2022-11-06T07:49:11;101590.38;;;5.74;100.00
53932;BME280;39844;52.496;13.482;2022-11-06T07:51:36;101593.25;;;5.83;100.00
53932;BME280;39844;52.496;13.482;2022-11-06T07:54:02;101592.59;;;5.90;100.00
53932;BME280;39844;52.496;13.482;2022-11-06T07:56:27;101584.97;;;5.95;100.00
53932;BME280;39844;52.496;13.482;2022-11-06T07:58:52;101586.00;;;6.01;100.00
53932;BME280;39844;52.496;13.482;2022-11-06T08:01:18;101571.47;;;6.09;100.00
53932;BME280;39844;52.496;13.482;2022-11-06T08:03:43;101575.06;;;6.14;100.00
53932;BME280;39844;52.496;13.482;2022-11-06T08:06:09;101579.59;;;6.21;100.00
53932;BME280;39844;52.496;13.482;2022-11-06T08:08:34;101575.41;;;6.26;100.00
53932;BME280;39844;52.496;13.482;2022-11-06T08:11:05;101581.63;;;6.31;99.91
53932;BME280;39844;52.496;13.482;2022-11-06T08:13:31;101580.88;;;6.35;99.37
53932;BME280;39844;52.496;13.482;2022-11-06T08:16:01;101582.81;;;6.43;99.10
53932;BME280;39844;52.496;13.482;2022-11-06T08:18:27;101582.94;;;6.49;98.72
53932;BME280;39844;52.496;13.482;2022-11-06T08:20:52;101577.91;;;6.55;98.03
53932;BME280;39844;52.496;13.482;2022-11-06T08:23:18;101573.72;;;6.61;97.97
53932;BME280;39844;52.496;13.482;2022-11-06T08:25:43;101573.00;;;6.67;97.19
53932;BME280;39844;52.496;13.482;2022-11-06T08:28:08;101561.84;;;6.72;96.86
53932;BME280;39844;52.496;13.482;2022-11-06T08:30:34;101560.19;;;6.76;96.09
53932;BME280;39844;52.496;13.482;2022-11-06T08:33:02;101567.34;;;6.84;96.55
53932;BME280;39844;52.496;13.482;2022-11-06T08:35:28;101564.91;;;6.92;96.05
53932;BME280;39844;52.496;13.482;2022-11-06T08:37:53;101582.50;;;6.99;95.97
53932;BME280;39844;52.496;13.482;2022-11-06T08:40:19;101571.28;;;7.02;95.39
53932;BME280;39844;52.496;13.482;2022-11-06T08:42:44;101576.53;;;7.05;94.56
53932;BME280;39844;52.496;13.482;2022-11-06T08:45:10;101570.56;;;7.09;94.07
53932;BME280;39844;52.496;13.482;2022-11-06T08:47:35;101563.72;;;7.14;93.96
53932;BME280;39844;52.496;13.482;2022-11-06T08:50:00;101554.25;;;7.19;93.67
53932;BME280;39844;52.496;13.482;2022-11-06T08:52:26;101559.59;;;7.25;93.50
53932;BME280;39844;52.496;13.482;2022-11-06T08:54:51;101544.91;;;7.28;93.01
53932;BME280;39844;52.496;13.482;2022-11-06T08:57:16;101543.19;;;7.30;92.64
53932;BME280;39844;52.496;13.482;2022-11-06T08:59:42;101533.72;;;7.34;92.40
53932;BME280;39844;52.496;13.482;2022-11-06T09:02:13;101543.44;;;7.39;92.15
53932;BME280;39844;52.496;13.482;2022-11-06T09:04:39;101547.09;;;7.47;91.96
53932;BME280;39844;52.496;13.482;2022-11-06T09:07:05;101547.19;;;7.53;91.73
53932;BME280;39844;52.496;13.482;2022-11-06T09:09:31;101542.06;;;7.58;91.10
53932;BME280;39844;52.496;13.482;2022-11-06T09:11:57;101548.31;;;7.64;90.86
53932;BME280;39844;52.496;13.482;2022-11-06T09:14:23;101540.59;;;7.71;90.93
53932;BME280;39844;52.496;13.482;2022-11-06T09:16:49;101545.06;;;7.76;90.47
53932;BME280;39844;52.496;13.482;2022-11-06T09:19:14;101532.09;;;7.81;89.80
53932;BME280;39844;52.496;13.482;2022-11-06T09:21:40;101530.44;;;7.86;89.23
53932;BME280;39844;52.496;13.482;2022-11-06T09:24:05;101543.66;;;7.92;89.30
53932;BME280;39844;52.496;13.482;2022-11-06T09:26:31;101539.41;;;7.97;88.83
53932;BME280;39844;52.496;13.482;2022-11-06T09:28:56;101534.28;;;8.03;88.74
53932;BME280;39844;52.496;13.482;2022-11-06T09:31:21;101533.56;;;8.11;88.19
53932;BME280;39844;52.496;13.482;2022-11-06T09:33:47;101532.81;;;8.17;87.38
53932;BME280;39844;52.496;13.482;2022-11-06T09:36:12;101533.78;;;8.22;87.04
53932;BME280;39844;52.496;13.482;2022-11-06T09:38:38;101531.31;;;8.28;86.84
53932;BME280;39844;52.496;13.482;2022-11-06T09:41:04;101530.56;;;8.35;86.68
53932;BME280;39844;52.496;13.482;2022-11-06T09:48:48;101536.97;;;8.52;85.27
53932;BME280;39844;52.496;13.482;2022-11-06T09:51:38;101529.19;;;8.55;84.58
53932;BME280;39844;52.496;13.482;2022-11-06T09:54:19;101533.66;;;8.62;84.70
53932;BME280;39844;52.496;13.482;2022-11-06T09:56:51;101538.13;;;8.68;83.65
53932;BME280;39844;52.496;13.482;2022-11-06T09:59:19;101526.88;;;8.73;83.93
53932;BME280;39844;52.496;13.482;2022-11-06T10:01:49;101526.09;;;8.79;83.18
53932;BME280;39844;52.496;13.482;2022-11-06T10:06:57;101528.84;;;8.86;82.72
53932;BME280;39844;52.496;13.482;2022-11-06T10:09:22;101522.81;;;8.92;82.47
53932;BME280;39844;52.496;13.482;2022-11-06T10:11:59;101521.97;;;8.95;81.31
53932;BME280;39844;52.496;13.482;2022-11-06T10:14:42;101516.78;;;8.98;80.80
53932;BME280;39844;52.496;13.482;2022-11-06T10:17:21;101509.88;;;9.03;80.55
53932;BME280;39844;52.496;13.482;2022-11-06T10:22:38;101509.97;;;9.09;80.54
53932;BME280;39844;52.496;13.482;2022-11-06T10:25:21;101511.75;;;9.10;80.08
53932;BME280;39844;52.496;13.482;2022-11-06T10:28:00;101504.81;;;9.15;79.83
53932;BME280;39844;52.496;13.482;2022-11-06T10:30:34;101497.88;;;9.17;79.27
53932;BME280;39844;52.496;13.482;2022-11-06T10:33:16;101495.28;;;9.20;79.75
53932;BME280;39844;52.496;13.482;2022-11-06T10:35:52;101489.22;;;9.24;79.28
53932;BME280;39844;52.496;13.482;2022-11-06T10:38:33;101491.03;;;9.28;79.79
53932;BME280;39844;52.496;13.482;2022-11-06T10:41:00;101491.09;;;9.32;79.55
53932;BME280;39844;52.496;13.482;2022-11-06T10:43:34;101475.44;;;9.37;79.36
53932;BME280;39844;52.496;13.482;2022-11-06T10:48:37;101470.25;;;9.41;78.20
53932;BME280;39844;52.496;13.482;2022-11-06T10:53:54;101465.97;;;9.48;78.65
53932;BME280;39844;52.496;13.482;2022-11-06T10:56:33;101471.28;;;9.54;78.53
53932;BME280;39844;52.496;13.482;2022-11-06T10:59:00;101463.47;;;9.57;78.44
53932;BME280;39844;52.496;13.482;2022-11-06T11:01:26;101460.00;;;9.60;77.78
53932;BME280;39844;52.496;13.482;2022-11-06T11:03:51;101456.50;;;9.59;77.43
53932;BME280;39844;52.496;13.482;2022-11-06T11:06:16;101460.00;;;9.61;77.35
53932;BME280;39844;52.496;13.482;2022-11-06T11:08:47;101459.16;;;9.62;77.03
53932;BME280;39844;52.496;13.482;2022-11-06T11:13:38;101447.91;;;9.71;77.46
53932;BME280;39844;52.496;13.482;2022-11-06T11:16:15;101433.94;;;9.73;77.22
53932;BME280;39844;52.496;13.482;2022-11-06T11:18:43;101435.72;;;9.77;77.31
53932;BME280;39844;52.496;13.482;2022-11-06T11:23:43;101428.81;;;9.85;76.82
53932;BME280;39844;52.496;13.482;2022-11-06T11:26:19;101429.75;;;9.90;76.63
53932;BME280;39844;52.496;13.482;2022-11-06T11:28:54;101427.16;;;9.93;76.02
53932;BME280;39844;52.496;13.482;2022-11-06T11:31:27;101429.81;;;9.96;76.02
53932;BME280;39844;52.496;13.482;2022-11-06T11:33:56;101423.69;;;9.97;75.74
53932;BME280;39844;52.496;13.482;2022-11-06T11:36:22;101418.47;;;10.02;75.93
53932;BME280;39844;52.496;13.482;2022-11-06T11:38:47;101422.91;;;10.07;75.92
53932;BME280;39844;52.496;13.482;2022-11-06T11:41:21;101433.50;;;10.15;75.88
53932;BME280;39844;52.496;13.482;2022-11-06T11:49:26;101391.59;;;12.20;68.97
53932;BME280;39844;52.496;13.482;2022-11-06T11:51:52;101392.38;;;12.84;66.91
53932;BME280;39844;52.496;13.482;2022-11-06T11:54:19;101394.91;;;13.31;64.15
53932;BME280;39844;52.496;13.482;2022-11-06T11:56:55;101385.06;;;13.62;63.04
53932;BME280;39844;52.496;13.482;2022-11-06T11:59:28;101382.31;;;13.75;61.98
53932;BME280;39844;52.496;13.482;2022-11-06T12:01:56;101380.47;;;13.96;60.91
53932;BME280;39844;52.496;13.482;2022-11-06T12:04:29;101381.38;;;13.87;60.56
53932;BME280;39844;52.496;13.482;2022-11-06T12:07:01;101380.59;;;13.74;60.45
53932;BME280;39844;52.496;13.482;2022-11-06T12:09:30;101375.41;;;13.62;60.60
53932;BME280;39844;52.496;13.482;2022-11-06T12:11:58;101377.22;;;13.51;61.60
53932;BME280;39844;52.496;13.482;2022-11-06T12:14:27;101364.94;;;13.43;61.69
53932;BME280;39844;52.496;13.482;2022-11-06T12:17:01;101368.50;;;13.37;60.93
53932;BME280;39844;52.496;13.482;2022-11-06T12:19:30;101354.41;;;13.44;61.74
53932;BME280;39844;52.496;13.482;2022-11-06T12:22:00;101354.34;;;13.53;61.86
53932;BME280;39844;52.496;13.482;2022-11-06T12:24:49;101346.47;;;13.47;60.90
53932;BME280;39844;52.496;13.482;2022-11-06T12:27:30;101341.25;;;13.38;61.06
53932;BME280;39844;52.496;13.482;2022-11-06T12:30:08;101347.34;;;13.43;61.58
53932;BME280;39844;52.496;13.482;2022-11-06T12:35:10;101343.88;;;13.38;61.06
53932;BME280;39844;52.496;13.482;2022-11-06T12:38:01;101332.56;;;13.19;60.39
53932;BME280;39844;52.496;13.482;2022-11-06T13:00:03;101318.72;;;12.42;63.73
53932;BME280;39844;52.496;13.482;2022-11-06T13:05:58;101326.66;;;12.33;63.77
53932;BME280;39844;52.496;13.482;2022-11-06T13:09:02;101321.38;;;12.28;63.62
53932;BME280;39844;52.496;13.482;2022-11-06T13:11:33;101312.63;;;12.26;64.24
53932;BME280;39844;52.496;13.482;2022-11-06T13:14:08;101314.38;;;12.27;63.85
53932;BME280;39844;52.496;13.482;2022-11-06T13:16:49;101312.66;;;12.20;64.08
53932;BME280;39844;52.496;13.482;2022-11-06T13:19:48;101313.50;;;12.16;64.28
53932;BME280;39844;52.496;13.482;2022-11-06T13:29:47;101299.50;;;12.10;64.05
53932;BME280;39844;52.496;13.482;2022-11-06T13:32:15;101299.47;;;12.08;63.54
53932;BME280;39844;52.496;13.482;2022-11-06T13:34:42;101283.69;;;12.10;63.92
53932;BME280;39844;52.496;13.482;2022-11-06T13:37:14;101282.81;;;12.14;64.41
53932;BME280;39844;52.496;13.482;2022-11-06T13:39:48;101274.91;;;12.14;63.94
53932;BME280;39844;52.496;13.482;2022-11-06T13:42:35;101264.38;;;12.18;64.44
53932;BME280;39844;52.496;13.482;2022-11-06T13:45:02;101265.25;;;12.20;64.02
53932;BME280;39844;52.496;13.482;2022-11-06T13:52:52;101259.97;;;12.35;63.61
53932;BME280;39844;52.496;13.482;2022-11-06T14:03:59;101245.03;;;12.34;63.17
53932;BME280;39844;52.496;13.482;2022-11-06T14:06:31;101255.53;;;12.39;63.63
53932;BME280;39844;52.496;13.482;2022-11-06T14:09:02;101257.31;;;12.40;63.47
53932;BME280;39844;52.496;13.482;2022-11-06T14:11:32;101256.44;;;12.39;63.68
53932;BME280;39844;52.496;13.482;2022-11-06T14:14:00;101256.44;;;12.39;63.92
53932;BME280;39844;52.496;13.482;2022-11-06T14:16:29;101259.09;;;12.35;63.11
53932;BME280;39844;52.496;13.482;2022-11-06T14:24:40;101245.03;;;12.28;62.96
53932;BME280;39844;52.496;13.482;2022-11-06T14:27:15;101238.03;;;12.27;62.98
53932;BME280;39844;52.496;13.482;2022-11-06T14:30:03;101236.28;;;12.26;63.01